sensor_id;sensor_type;location;lat;lon;timestamp;P1;durP1;ratioP1;P2;durP2;ratioP2
44810;SDS011;30526;52.184;4.476;2022-10-31T00:00:05;6.15;;;2.38;;
44810;SDS011;30526;52.184;4.476;2022-10-31T00:02:31;5.90;;;2.25;;
44810;SDS011;30526;52.184;4.476;2022-10-31T00:04:57;7.05;;;2.55;;
44810;SDS011;30526;52.184;4.476;2022-10-31T00:07:23;5.45;;;3.20;;
44810;SDS011;30526;52.184;4.476;2022-10-31T00:09:49;5.38;;;2.28;;
44810;SDS011;30526;52.184;4.476;2022-10-31T00:12:15;3.38;;;1.98;;
44810;SDS011;30526;52.184;4.476;2022-10-31T00:14:41;8.27;;;2.05;;
44810;SDS011;30526;52.184;4.476;2022-10-31T00:17:07;7.43;;;2.22;;
44810;SDS011;30526;52.184;4.476;2022-10-31T00:19:33;2.70;;;2.08;;
44810;SDS011;30526;52.184;4.476;2022-10-31T00:21:59;7.03;;;2.33;;
44810;SDS011;30526;52.184;4.476;2022-10-31T00:24:25;6.32;;;2.50;;
44810;SDS011;30526;52.184;4.476;2022-10-31T00:26:51;6.20;;;2.20;;
44810;SDS011;30526;52.184;4.476;2022-10-31T00:29:17;4.80;;;2.17;;
44810;SDS011;30526;52.184;4.476;2022-10-31T00:31:43;4.50;;;2.15;;
44810;SDS011;30526;52.184;4.476;2022-10-31T00:34:09;5.93;;;2.45;;
44810;SDS011;30526;52.184;4.476;2022-10-31T00:36:35;6.35;;;2.05;;
44810;SDS011;30526;52.184;4.476;2022-10-31T00:39:01;6.55;;;2.83;;
44810;SDS011;30526;52.184;4.476;2022-10-31T00:41:26;6.63;;;2.30;;
44810;SDS011;30526;52.184;4.476;2022-10-31T00:43:53;5.30;;;1.73;;
44810;SDS011;30526;52.184;4.476;2022-10-31T00:46:19;9.43;;;2.47;;
44810;SDS011;30526;52.184;4.476;2022-10-31T00:48:45;5.68;;;2.50;;
44810;SDS011;30526;52.184;4.476;2022-10-31T00:51:11;3.15;;;2.10;;
44810;SDS011;30526;52.184;4.476;2022-10-31T00:53:37;5.82;;;2.65;;
44810;SDS011;30526;52.184;4.476;2022-10-31T00:56:03;6.72;;;1.95;;
44810;SDS011;30526;52.184;4.476;2022-10-31T00:58:29;5.05;;;2.60;;
44810;SDS011;30526;52.184;4.476;2022-10-31T01:00:55;7.10;;;2.10;;
44810;SDS011;30526;52.184;4.476;2022-10-31T01:03:22;6.57;;;2.30;;
44810;SDS011;30526;52.184;4.476;2022-10-31T01:05:55;3.80;;;2.05;;
44810;SDS011;30526;52.184;4.476;2022-10-31T01:08:22;9.63;;;2.30;;
44810;SDS011;30526;52.184;4.476;2022-10-31T01:10:57;8.98;;;2.33;;
44810;SDS011;30526;52.184;4.476;2022-10-31T01:13:23;5.72;;;2.20;;
44810;SDS011;30526;52.184;4.476;2022-10-31T01:15:53;4.07;;;2.33;;
44810;SDS011;30526;52.184;4.476;2022-10-31T01:18:19;3.40;;;2.38;;
44810;SDS011;30526;52.184;4.476;2022-10-31T01:20:45;5.40;;;2.30;;
44810;SDS011;30526;52.184;4.476;2022-10-31T01:23:11;6.53;;;2.20;;
44810;SDS011;30526;52.184;4.476;2022-10-31T01:25:37;4.63;;;2.35;;
44810;SDS011;30526;52.184;4.476;2022-10-31T01:28:03;6.30;;;3.28;;
44810;SDS011;30526;52.184;4.476;2022-10-31T01:30:29;6.25;;;2.47;;
44810;SDS011;30526;52.184;4.476;2022-10-31T01:32:55;7.40;;;2.53;;
44810;SDS011;30526;52.184;4.476;2022-10-31T01:35:22;6.22;;;2.65;;
44810;SDS011;30526;52.184;4.476;2022-10-31T01:37:48;3.00;;;2.33;;
44810;SDS011;30526;52.184;4.476;2022-10-31T01:40:14;2.88;;;2.55;;
44810;SDS011;30526;52.184;4.476;2022-10-31T01:42:40;4.90;;;2.90;;
44810;SDS011;30526;52.184;4.476;2022-10-31T01:45:09;5.13;;;2.97;;
44810;SDS011;30526;52.184;4.476;2022-10-31T01:47:40;5.65;;;3.10;;
44810;SDS011;30526;52.184;4.476;2022-10-31T01:50:12;7.13;;;2.97;;
44810;SDS011;30526;52.184;4.476;2022-10-31T01:52:40;6.43;;;2.97;;
44810;SDS011;30526;52.184;4.476;2022-10-31T01:55:12;6.20;;;3.05;;
44810;SDS011;30526;52.184;4.476;2022-10-31T01:57:40;8.93;;;3.50;;
44810;SDS011;30526;52.184;4.476;2022-10-31T02:00:08;6.15;;;2.80;;
44810;SDS011;30526;52.184;4.476;2022-10-31T02:02:35;6.80;;;3.53;;
44810;SDS011;30526;52.184;4.476;2022-10-31T02:05:02;4.10;;;3.42;;
44810;SDS011;30526;52.184;4.476;2022-10-31T02:07:31;7.53;;;3.65;;
44810;SDS011;30526;52.184;4.476;2022-10-31T02:09:58;4.22;;;2.75;;
44810;SDS011;30526;52.184;4.476;2022-10-31T02:12:26;8.50;;;3.33;;
44810;SDS011;30526;52.184;4.476;2022-10-31T02:14:52;7.22;;;3.72;;
44810;SDS011;30526;52.184;4.476;2022-10-31T02:17:18;5.60;;;3.72;;
44810;SDS011;30526;52.184;4.476;2022-10-31T02:22:37;6.65;;;3.58;;
44810;SDS011;30526;52.184;4.476;2022-10-31T02:32:46;8.55;;;4.55;;
44810;SDS011;30526;52.184;4.476;2022-10-31T02:40:27;7.13;;;4.28;;
44810;SDS011;30526;52.184;4.476;2022-10-31T02:43:02;8.10;;;3.95;;
44810;SDS011;30526;52.184;4.476;2022-10-31T02:45:33;7.82;;;4.20;;
44810;SDS011;30526;52.184;4.476;2022-10-31T02:48:03;4.88;;;3.55;;
44810;SDS011;30526;52.184;4.476;2022-10-31T02:50:32;10.27;;;3.90;;
44810;SDS011;30526;52.184;4.476;2022-10-31T02:53:00;8.57;;;3.92;;
44810;SDS011;30526;52.184;4.476;2022-10-31T02:57:53;5.88;;;4.05;;
44810;SDS011;30526;52.184;4.476;2022-10-31T03:00:20;7.28;;;4.45;;
44810;SDS011;30526;52.184;4.476;2022-10-31T03:02:52;8.70;;;4.70;;
44810;SDS011;30526;52.184;4.476;2022-10-31T03:05:28;9.55;;;4.55;;
44810;SDS011;30526;52.184;4.476;2022-10-31T03:08:06;6.18;;;4.45;;
44810;SDS011;30526;52.184;4.476;2022-10-31T03:10:47;7.63;;;5.07;;
44810;SDS011;30526;52.184;4.476;2022-10-31T03:15:43;6.47;;;3.70;;
44810;SDS011;30526;52.184;4.476;2022-10-31T03:20:37;9.90;;;4.85;;
44810;SDS011;30526;52.184;4.476;2022-10-31T03:23:04;12.88;;;5.57;;
44810;SDS011;30526;52.184;4.476;2022-10-31T03:25:32;14.38;;;5.10;;
44810;SDS011;30526;52.184;4.476;2022-10-31T03:28:00;9.32;;;5.45;;
44810;SDS011;30526;52.184;4.476;2022-10-31T03:30:27;11.43;;;5.65;;
44810;SDS011;30526;52.184;4.476;2022-10-31T03:32:55;5.53;;;3.80;;
44810;SDS011;30526;52.184;4.476;2022-10-31T03:35:22;11.52;;;5.25;;
44810;SDS011;30526;52.184;4.476;2022-10-31T03:40:15;8.02;;;5.28;;
44810;SDS011;30526;52.184;4.476;2022-10-31T03:42:43;7.43;;;4.25;;
44810;SDS011;30526;52.184;4.476;2022-10-31T03:45:29;11.48;;;5.75;;
44810;SDS011;30526;52.184;4.476;2022-10-31T03:47:56;10.18;;;5.25;;
44810;SDS011;30526;52.184;4.476;2022-10-31T03:50:23;11.18;;;5.80;;
44810;SDS011;30526;52.184;4.476;2022-10-31T03:55:18;11.20;;;6.15;;
44810;SDS011;30526;52.184;4.476;2022-10-31T03:57:48;10.23;;;6.03;;
44810;SDS011;30526;52.184;4.476;2022-10-31T04:00:16;11.40;;;6.22;;
44810;SDS011;30526;52.184;4.476;2022-10-31T04:02:45;14.73;;;6.90;;
44810;SDS011;30526;52.184;4.476;2022-10-31T04:05:12;12.82;;;6.55;;
44810;SDS011;30526;52.184;4.476;2022-10-31T04:07:41;8.35;;;5.07;;
44810;SDS011;30526;52.184;4.476;2022-10-31T04:10:09;12.75;;;6.38;;
44810;SDS011;30526;52.184;4.476;2022-10-31T04:12:36;14.90;;;6.57;;
44810;SDS011;30526;52.184;4.476;2022-10-31T04:15:03;10.73;;;5.53;;
44810;SDS011;30526;52.184;4.476;2022-10-31T04:17:32;17.20;;;7.13;;
44810;SDS011;30526;52.184;4.476;2022-10-31T04:19:59;13.00;;;6.25;;
44810;SDS011;30526;52.184;4.476;2022-10-31T04:22:26;12.88;;;6.55;;
44810;SDS011;30526;52.184;4.476;2022-10-31T04:24:52;13.15;;;6.72;;
44810;SDS011;30526;52.184;4.476;2022-10-31T04:27:18;11.65;;;6.97;;
44810;SDS011;30526;52.184;4.476;2022-10-31T04:29:44;13.18;;;6.90;;
44810;SDS011;30526;52.184;4.476;2022-10-31T04:32:10;13.52;;;7.47;;
44810;SDS011;30526;52.184;4.476;2022-10-31T04:34:36;15.07;;;7.15;;
44810;SDS011;30526;52.184;4.476;2022-10-31T04:37:02;11.20;;;6.15;;
44810;SDS011;30526;52.184;4.476;2022-10-31T04:39:28;25.80;;;8.00;;
44810;SDS011;30526;52.184;4.476;2022-10-31T04:41:54;13.18;;;6.72;;
44810;SDS011;30526;52.184;4.476;2022-10-31T04:44:20;15.55;;;7.32;;
44810;SDS011;30526;52.184;4.476;2022-10-31T04:46:46;9.57;;;6.18;;
44810;SDS011;30526;52.184;4.476;2022-10-31T04:49:12;10.32;;;5.65;;
44810;SDS011;30526;52.184;4.476;2022-10-31T04:51:38;12.85;;;6.70;;
44810;SDS011;30526;52.184;4.476;2022-10-31T04:54:04;14.40;;;6.30;;
44810;SDS011;30526;52.184;4.476;2022-10-31T04:56:30;14.23;;;6.28;;
44810;SDS011;30526;52.184;4.476;2022-10-31T04:58:56;13.75;;;6.30;;
44810;SDS011;30526;52.184;4.476;2022-10-31T05:01:22;16.73;;;7.00;;
44810;SDS011;30526;52.184;4.476;2022-10-31T05:03:48;14.52;;;7.50;;
44810;SDS011;30526;52.184;4.476;2022-10-31T05:06:14;16.55;;;7.30;;
44810;SDS011;30526;52.184;4.476;2022-10-31T05:08:41;12.55;;;6.82;;
44810;SDS011;30526;52.184;4.476;2022-10-31T05:11:07;17.55;;;6.75;;
44810;SDS011;30526;52.184;4.476;2022-10-31T05:13:33;14.63;;;6.20;;
44810;SDS011;30526;52.184;4.476;2022-10-31T05:15:59;14.02;;;6.68;;
44810;SDS011;30526;52.184;4.476;2022-10-31T05:18:25;12.13;;;6.53;;
44810;SDS011;30526;52.184;4.476;2022-10-31T05:20:51;14.00;;;6.45;;
44810;SDS011;30526;52.184;4.476;2022-10-31T05:23:17;12.73;;;6.50;;
44810;SDS011;30526;52.184;4.476;2022-10-31T05:25:43;14.40;;;6.88;;
44810;SDS011;30526;52.184;4.476;2022-10-31T05:28:09;13.68;;;6.75;;
44810;SDS011;30526;52.184;4.476;2022-10-31T05:30:35;10.95;;;5.85;;
44810;SDS011;30526;52.184;4.476;2022-10-31T05:33:01;20.17;;;7.60;;
44810;SDS011;30526;52.184;4.476;2022-10-31T05:35:28;12.82;;;6.07;;
44810;SDS011;30526;52.184;4.476;2022-10-31T05:37:54;11.40;;;4.88;;
44810;SDS011;30526;52.184;4.476;2022-10-31T05:40:20;12.90;;;6.68;;
44810;SDS011;30526;52.184;4.476;2022-10-31T05:42:46;11.55;;;7.28;;
44810;SDS011;30526;52.184;4.476;2022-10-31T05:45:13;13.05;;;6.68;;
44810;SDS011;30526;52.184;4.476;2022-10-31T05:47:40;16.75;;;7.93;;
44810;SDS011;30526;52.184;4.476;2022-10-31T05:50:06;12.63;;;7.38;;
44810;SDS011;30526;52.184;4.476;2022-10-31T05:52:32;21.73;;;8.35;;
44810;SDS011;30526;52.184;4.476;2022-10-31T05:54:58;21.13;;;9.23;;
44810;SDS011;30526;52.184;4.476;2022-10-31T05:57:24;20.58;;;9.70;;
44810;SDS011;30526;52.184;4.476;2022-10-31T05:59:50;23.10;;;9.68;;
44810;SDS011;30526;52.184;4.476;2022-10-31T06:02:18;20.08;;;7.22;;
44810;SDS011;30526;52.184;4.476;2022-10-31T06:04:44;17.63;;;7.20;;
44810;SDS011;30526;52.184;4.476;2022-10-31T06:07:10;24.27;;;10.15;;
44810;SDS011;30526;52.184;4.476;2022-10-31T06:09:36;22.00;;;11.02;;
44810;SDS011;30526;52.184;4.476;2022-10-31T06:12:03;26.80;;;10.32;;
44810;SDS011;30526;52.184;4.476;2022-10-31T06:14:29;27.02;;;11.30;;
44810;SDS011;30526;52.184;4.476;2022-10-31T06:16:55;24.13;;;10.23;;
44810;SDS011;30526;52.184;4.476;2022-10-31T06:19:21;26.67;;;10.30;;
44810;SDS011;30526;52.184;4.476;2022-10-31T06:21:47;29.20;;;11.40;;
44810;SDS011;30526;52.184;4.476;2022-10-31T06:24:13;23.75;;;11.43;;
44810;SDS011;30526;52.184;4.476;2022-10-31T06:26:42;27.55;;;11.80;;
44810;SDS011;30526;52.184;4.476;2022-10-31T06:29:08;33.67;;;10.93;;
44810;SDS011;30526;52.184;4.476;2022-10-31T06:31:34;25.40;;;11.60;;
44810;SDS011;30526;52.184;4.476;2022-10-31T06:34:00;26.70;;;11.23;;
44810;SDS011;30526;52.184;4.476;2022-10-31T06:36:26;26.05;;;11.25;;
44810;SDS011;30526;52.184;4.476;2022-10-31T06:38:52;30.70;;;13.82;;
44810;SDS011;30526;52.184;4.476;2022-10-31T06:41:18;26.58;;;13.75;;
44810;SDS011;30526;52.184;4.476;2022-10-31T06:43:47;31.83;;;13.77;;
44810;SDS011;30526;52.184;4.476;2022-10-31T06:46:13;29.98;;;14.05;;
44810;SDS011;30526;52.184;4.476;2022-10-31T06:48:40;38.17;;;14.50;;
44810;SDS011;30526;52.184;4.476;2022-10-31T06:51:06;24.58;;;10.32;;
44810;SDS011;30526;52.184;4.476;2022-10-31T06:53:33;32.10;;;14.00;;
44810;SDS011;30526;52.184;4.476;2022-10-31T06:55:59;33.85;;;14.05;;
44810;SDS011;30526;52.184;4.476;2022-10-31T06:58:25;40.65;;;15.00;;
44810;SDS011;30526;52.184;4.476;2022-10-31T07:00:51;32.15;;;13.77;;
44810;SDS011;30526;52.184;4.476;2022-10-31T07:03:17;48.15;;;15.68;;
44810;SDS011;30526;52.184;4.476;2022-10-31T07:05:43;35.50;;;15.50;;
44810;SDS011;30526;52.184;4.476;2022-10-31T07:08:10;37.15;;;15.57;;
44810;SDS011;30526;52.184;4.476;2022-10-31T07:10:39;41.50;;;16.02;;
44810;SDS011;30526;52.184;4.476;2022-10-31T07:13:06;38.20;;;16.05;;
44810;SDS011;30526;52.184;4.476;2022-10-31T07:15:33;36.25;;;16.88;;
44810;SDS011;30526;52.184;4.476;2022-10-31T07:18:00;23.15;;;11.77;;
44810;SDS011;30526;52.184;4.476;2022-10-31T07:20:27;25.40;;;11.52;;
44810;SDS011;30526;52.184;4.476;2022-10-31T07:22:53;31.50;;;15.95;;
44810;SDS011;30526;52.184;4.476;2022-10-31T07:25:19;32.47;;;16.63;;
44810;SDS011;30526;52.184;4.476;2022-10-31T07:27:45;44.57;;;17.63;;
44810;SDS011;30526;52.184;4.476;2022-10-31T07:30:12;40.20;;;17.45;;
44810;SDS011;30526;52.184;4.476;2022-10-31T07:32:42;42.25;;;18.80;;
44810;SDS011;30526;52.184;4.476;2022-10-31T07:35:09;47.03;;;19.70;;
44810;SDS011;30526;52.184;4.476;2022-10-31T07:37:35;33.28;;;14.40;;
44810;SDS011;30526;52.184;4.476;2022-10-31T07:40:02;44.45;;;19.40;;
44810;SDS011;30526;52.184;4.476;2022-10-31T07:42:28;42.47;;;15.57;;
44810;SDS011;30526;52.184;4.476;2022-10-31T07:44:54;50.92;;;19.45;;
44810;SDS011;30526;52.184;4.476;2022-10-31T07:47:20;50.05;;;21.02;;
44810;SDS011;30526;52.184;4.476;2022-10-31T07:49:46;41.08;;;20.60;;
44810;SDS011;30526;52.184;4.476;2022-10-31T07:52:12;53.38;;;21.92;;
44810;SDS011;30526;52.184;4.476;2022-10-31T07:54:38;57.28;;;21.77;;
44810;SDS011;30526;52.184;4.476;2022-10-31T07:57:04;44.33;;;20.55;;
44810;SDS011;30526;52.184;4.476;2022-10-31T07:59:30;39.45;;;19.88;;
44810;SDS011;30526;52.184;4.476;2022-10-31T08:01:56;47.47;;;20.20;;
44810;SDS011;30526;52.184;4.476;2022-10-31T08:04:22;31.55;;;13.93;;
44810;SDS011;30526;52.184;4.476;2022-10-31T08:06:48;26.42;;;14.02;;
44810;SDS011;30526;52.184;4.476;2022-10-31T08:09:14;42.20;;;19.80;;
44810;SDS011;30526;52.184;4.476;2022-10-31T08:11:40;36.95;;;15.70;;
44810;SDS011;30526;52.184;4.476;2022-10-31T08:14:06;30.33;;;15.52;;
44810;SDS011;30526;52.184;4.476;2022-10-31T08:16:32;45.85;;;18.52;;
44810;SDS011;30526;52.184;4.476;2022-10-31T08:18:58;28.52;;;14.05;;
44810;SDS011;30526;52.184;4.476;2022-10-31T08:21:25;30.63;;;15.98;;
44810;SDS011;30526;52.184;4.476;2022-10-31T08:23:51;30.73;;;15.25;;
44810;SDS011;30526;52.184;4.476;2022-10-31T08:26:17;31.70;;;16.60;;
44810;SDS011;30526;52.184;4.476;2022-10-31T08:28:43;31.90;;;15.00;;
44810;SDS011;30526;52.184;4.476;2022-10-31T08:31:09;28.98;;;15.75;;
44810;SDS011;30526;52.184;4.476;2022-10-31T08:33:35;33.03;;;16.23;;
44810;SDS011;30526;52.184;4.476;2022-10-31T08:36:01;39.15;;;18.75;;
44810;SDS011;30526;52.184;4.476;2022-10-31T08:38:27;35.08;;;17.70;;
44810;SDS011;30526;52.184;4.476;2022-10-31T08:40:53;36.67;;;18.17;;
44810;SDS011;30526;52.184;4.476;2022-10-31T08:43:19;31.77;;;16.10;;
44810;SDS011;30526;52.184;4.476;2022-10-31T08:45:47;30.75;;;15.65;;
44810;SDS011;30526;52.184;4.476;2022-10-31T08:48:14;38.22;;;18.45;;
44810;SDS011;30526;52.184;4.476;2022-10-31T08:50:40;36.17;;;16.52;;
44810;SDS011;30526;52.184;4.476;2022-10-31T08:53:08;34.33;;;17.27;;
44810;SDS011;30526;52.184;4.476;2022-10-31T08:55:35;36.03;;;18.42;;
44810;SDS011;30526;52.184;4.476;2022-10-31T08:58:02;25.93;;;14.33;;
44810;SDS011;30526;52.184;4.476;2022-10-31T09:00:29;35.65;;;17.85;;
44810;SDS011;30526;52.184;4.476;2022-10-31T09:02:56;21.20;;;10.85;;
44810;SDS011;30526;52.184;4.476;2022-10-31T09:05:22;31.67;;;15.57;;
44810;SDS011;30526;52.184;4.476;2022-10-31T09:07:48;36.25;;;19.40;;
44810;SDS011;30526;52.184;4.476;2022-10-31T09:10:14;41.10;;;17.75;;
44810;SDS011;30526;52.184;4.476;2022-10-31T09:12:40;35.80;;;18.25;;
44810;SDS011;30526;52.184;4.476;2022-10-31T09:15:07;39.20;;;18.95;;
44810;SDS011;30526;52.184;4.476;2022-10-31T09:17:33;41.88;;;18.35;;
44810;SDS011;30526;52.184;4.476;2022-10-31T09:19:59;39.00;;;18.20;;
44810;SDS011;30526;52.184;4.476;2022-10-31T09:22:25;34.63;;;18.20;;
44810;SDS011;30526;52.184;4.476;2022-10-31T09:24:51;34.13;;;17.98;;
44810;SDS011;30526;52.184;4.476;2022-10-31T09:27:17;31.90;;;17.23;;
44810;SDS011;30526;52.184;4.476;2022-10-31T09:29:43;32.70;;;18.08;;
44810;SDS011;30526;52.184;4.476;2022-10-31T09:32:09;22.13;;;10.65;;
44810;SDS011;30526;52.184;4.476;2022-10-31T09:34:35;29.63;;;15.18;;
44810;SDS011;30526;52.184;4.476;2022-10-31T09:37:01;26.85;;;15.02;;
44810;SDS011;30526;52.184;4.476;2022-10-31T09:39:27;25.73;;;15.68;;
44810;SDS011;30526;52.184;4.476;2022-10-31T09:42:00;26.98;;;14.18;;
44810;SDS011;30526;52.184;4.476;2022-10-31T09:52:08;26.10;;;14.57;;
44810;SDS011;30526;52.184;4.476;2022-10-31T09:54:38;26.60;;;14.95;;
44810;SDS011;30526;52.184;4.476;2022-10-31T09:57:05;26.58;;;15.10;;
44810;SDS011;30526;52.184;4.476;2022-10-31T09:59:38;23.23;;;13.88;;
44810;SDS011;30526;52.184;4.476;2022-10-31T10:02:22;17.63;;;8.50;;
44810;SDS011;30526;52.184;4.476;2022-10-31T10:10:00;22.25;;;13.32;;
44810;SDS011;30526;52.184;4.476;2022-10-31T10:17:43;22.25;;;13.25;;
44810;SDS011;30526;52.184;4.476;2022-10-31T10:25:24;19.17;;;10.90;;
44810;SDS011;30526;52.184;4.476;2022-10-31T10:30:30;20.58;;;13.18;;
44810;SDS011;30526;52.184;4.476;2022-10-31T10:32:58;22.17;;;11.82;;
44810;SDS011;30526;52.184;4.476;2022-10-31T10:35:33;13.20;;;7.65;;
44810;SDS011;30526;52.184;4.476;2022-10-31T10:40:44;19.35;;;11.10;;
44810;SDS011;30526;52.184;4.476;2022-10-31T10:45:48;29.17;;;12.63;;
44810;SDS011;30526;52.184;4.476;2022-10-31T10:51:31;19.55;;;11.38;;
44810;SDS011;30526;52.184;4.476;2022-10-31T10:59:19;21.48;;;12.65;;
44810;SDS011;30526;52.184;4.476;2022-10-31T11:01:48;20.70;;;12.18;;
44810;SDS011;30526;52.184;4.476;2022-10-31T11:04:21;24.73;;;11.95;;
44810;SDS011;30526;52.184;4.476;2022-10-31T11:09:44;19.88;;;11.45;;
44810;SDS011;30526;52.184;4.476;2022-10-31T11:14:43;19.88;;;11.93;;
44810;SDS011;30526;52.184;4.476;2022-10-31T11:17:15;26.33;;;13.52;;
44810;SDS011;30526;52.184;4.476;2022-10-31T11:19:43;20.05;;;12.25;;
44810;SDS011;30526;52.184;4.476;2022-10-31T11:22:14;23.02;;;13.77;;
44810;SDS011;30526;52.184;4.476;2022-10-31T11:24:41;25.23;;;13.77;;
44810;SDS011;30526;52.184;4.476;2022-10-31T11:27:11;17.08;;;12.15;;
44810;SDS011;30526;52.184;4.476;2022-10-31T11:29:38;23.73;;;14.15;;
44810;SDS011;30526;52.184;4.476;2022-10-31T11:32:04;20.35;;;13.38;;
44810;SDS011;30526;52.184;4.476;2022-10-31T11:34:31;28.30;;;15.52;;
44810;SDS011;30526;52.184;4.476;2022-10-31T11:37:01;25.35;;;14.25;;
44810;SDS011;30526;52.184;4.476;2022-10-31T11:39:28;24.50;;;14.50;;
44810;SDS011;30526;52.184;4.476;2022-10-31T11:41:54;22.55;;;12.88;;
44810;SDS011;30526;52.184;4.476;2022-10-31T11:44:25;20.33;;;13.43;;
44810;SDS011;30526;52.184;4.476;2022-10-31T11:46:53;21.98;;;14.30;;
44810;SDS011;30526;52.184;4.476;2022-10-31T11:49:23;21.63;;;13.43;;
44810;SDS011;30526;52.184;4.476;2022-10-31T11:51:51;19.75;;;12.60;;
44810;SDS011;30526;52.184;4.476;2022-10-31T11:54:20;19.25;;;10.93;;
44810;SDS011;30526;52.184;4.476;2022-10-31T11:56:47;18.90;;;10.32;;
44810;SDS011;30526;52.184;4.476;2022-10-31T11:59:18;19.08;;;11.93;;
44810;SDS011;30526;52.184;4.476;2022-10-31T12:01:49;17.73;;;10.60;;
44810;SDS011;30526;52.184;4.476;2022-10-31T12:04:15;17.95;;;11.98;;
44810;SDS011;30526;52.184;4.476;2022-10-31T12:06:45;19.45;;;11.98;;
44810;SDS011;30526;52.184;4.476;2022-10-31T12:11:52;16.60;;;10.20;;
44810;SDS011;30526;52.184;4.476;2022-10-31T12:24:47;21.83;;;13.95;;
44810;SDS011;30526;52.184;4.476;2022-10-31T12:37:59;28.92;;;15.85;;
44810;SDS011;30526;52.184;4.476;2022-10-31T12:48:19;20.42;;;11.93;;
44810;SDS011;30526;52.184;4.476;2022-10-31T12:55:44;24.13;;;15.18;;
44810;SDS011;30526;52.184;4.476;2022-10-31T12:58:17;25.38;;;15.93;;
44810;SDS011;30526;52.184;4.476;2022-10-31T13:00:44;27.83;;;14.20;;
44810;SDS011;30526;52.184;4.476;2022-10-31T13:03:24;25.30;;;16.20;;
44810;SDS011;30526;52.184;4.476;2022-10-31T13:05:51;25.50;;;16.05;;
44810;SDS011;30526;52.184;4.476;2022-10-31T13:08:24;23.30;;;13.93;;
44810;SDS011;30526;52.184;4.476;2022-10-31T13:13:44;30.77;;;17.92;;
44810;SDS011;30526;52.184;4.476;2022-10-31T13:18:58;30.92;;;16.83;;
44810;SDS011;30526;52.184;4.476;2022-10-31T13:23:50;27.63;;;16.63;;
44810;SDS011;30526;52.184;4.476;2022-10-31T13:26:26;25.38;;;18.58;;
44810;SDS011;30526;52.184;4.476;2022-10-31T13:29:30;28.08;;;18.13;;
44810;SDS011;30526;52.184;4.476;2022-10-31T13:31:49;31.17;;;19.13;;
44810;SDS011;30526;52.184;4.476;2022-10-31T13:34:31;26.45;;;17.40;;
44810;SDS011;30526;52.184;4.476;2022-10-31T13:37:01;30.25;;;17.45;;
44810;SDS011;30526;52.184;4.476;2022-10-31T13:39:32;27.45;;;17.05;;
44810;SDS011;30526;52.184;4.476;2022-10-31T13:42:22;31.42;;;18.23;;
44810;SDS011;30526;52.184;4.476;2022-10-31T13:44:49;32.35;;;17.60;;
44810;SDS011;30526;52.184;4.476;2022-10-31T13:49:47;30.80;;;18.85;;
44810;SDS011;30526;52.184;4.476;2022-10-31T13:52:31;35.95;;;20.70;;
44810;SDS011;30526;52.184;4.476;2022-10-31T13:54:57;39.47;;;19.27;;
44810;SDS011;30526;52.184;4.476;2022-10-31T13:57:41;24.88;;;15.60;;
44810;SDS011;30526;52.184;4.476;2022-10-31T14:02:47;23.75;;;15.27;;
44810;SDS011;30526;52.184;4.476;2022-10-31T14:05:24;36.60;;;18.63;;
44810;SDS011;30526;52.184;4.476;2022-10-31T14:12:46;31.67;;;18.33;;
44810;SDS011;30526;52.184;4.476;2022-10-31T14:22:40;41.00;;;22.02;;
44810;SDS011;30526;52.184;4.476;2022-10-31T14:27:50;37.65;;;20.30;;
44810;SDS011;30526;52.184;4.476;2022-10-31T14:30:19;40.20;;;21.95;;
44810;SDS011;30526;52.184;4.476;2022-10-31T14:32:51;32.22;;;15.52;;
44810;SDS011;30526;52.184;4.476;2022-10-31T14:35:18;37.70;;;21.13;;
44810;SDS011;30526;52.184;4.476;2022-10-31T14:37:54;38.40;;;22.02;;
44810;SDS011;30526;52.184;4.476;2022-10-31T14:43:14;37.20;;;20.75;;
44810;SDS011;30526;52.184;4.476;2022-10-31T14:48:24;43.28;;;21.50;;
44810;SDS011;30526;52.184;4.476;2022-10-31T14:50:58;44.43;;;23.87;;
44810;SDS011;30526;52.184;4.476;2022-10-31T14:53:26;38.45;;;20.15;;
44810;SDS011;30526;52.184;4.476;2022-10-31T14:55:54;39.75;;;22.38;;
44810;SDS011;30526;52.184;4.476;2022-10-31T14:58:25;29.25;;;15.00;;
44810;SDS011;30526;52.184;4.476;2022-10-31T15:00:54;57.53;;;24.70;;
44810;SDS011;30526;52.184;4.476;2022-10-31T15:03:23;45.83;;;23.17;;
44810;SDS011;30526;52.184;4.476;2022-10-31T15:05:50;49.83;;;23.60;;
44810;SDS011;30526;52.184;4.476;2022-10-31T15:08:29;38.00;;;21.42;;
44810;SDS011;30526;52.184;4.476;2022-10-31T15:10:56;44.80;;;20.98;;
44810;SDS011;30526;52.184;4.476;2022-10-31T15:13:22;40.95;;;23.30;;
44810;SDS011;30526;52.184;4.476;2022-10-31T15:15:49;36.75;;;19.00;;
44810;SDS011;30526;52.184;4.476;2022-10-31T15:18:24;44.17;;;22.05;;
44810;SDS011;30526;52.184;4.476;2022-10-31T15:20:51;39.17;;;21.67;;
44810;SDS011;30526;52.184;4.476;2022-10-31T15:23:22;45.60;;;21.73;;
44810;SDS011;30526;52.184;4.476;2022-10-31T15:25:48;43.13;;;24.55;;
44810;SDS011;30526;52.184;4.476;2022-10-31T15:28:15;33.75;;;19.08;;
44810;SDS011;30526;52.184;4.476;2022-10-31T15:30:49;43.20;;;24.00;;
44810;SDS011;30526;52.184;4.476;2022-10-31T15:33:20;41.53;;;23.38;;
44810;SDS011;30526;52.184;4.476;2022-10-31T15:35:54;50.45;;;24.13;;
44810;SDS011;30526;52.184;4.476;2022-10-31T15:38:20;37.40;;;19.27;;
44810;SDS011;30526;52.184;4.476;2022-10-31T15:41:00;43.85;;;24.00;;
44810;SDS011;30526;52.184;4.476;2022-10-31T15:43:27;50.38;;;23.08;;
44810;SDS011;30526;52.184;4.476;2022-10-31T15:45:56;46.00;;;23.42;;
44810;SDS011;30526;52.184;4.476;2022-10-31T15:48:23;34.13;;;17.15;;
44810;SDS011;30526;52.184;4.476;2022-10-31T15:50:53;37.80;;;18.60;;
44810;SDS011;30526;52.184;4.476;2022-10-31T15:53:29;39.40;;;19.08;;
44810;SDS011;30526;52.184;4.476;2022-10-31T15:55:59;42.00;;;21.25;;
44810;SDS011;30526;52.184;4.476;2022-10-31T15:58:26;34.17;;;16.13;;
44810;SDS011;30526;52.184;4.476;2022-10-31T16:05:46;36.80;;;20.10;;
44810;SDS011;30526;52.184;4.476;2022-10-31T16:13:38;41.80;;;20.83;;
44810;SDS011;30526;52.184;4.476;2022-10-31T16:16:12;47.38;;;23.60;;
44810;SDS011;30526;52.184;4.476;2022-10-31T16:18:39;37.38;;;19.23;;
44810;SDS011;30526;52.184;4.476;2022-10-31T16:21:06;47.13;;;22.20;;
44810;SDS011;30526;52.184;4.476;2022-10-31T16:23:33;34.40;;;17.08;;
44810;SDS011;30526;52.184;4.476;2022-10-31T16:25:59;36.90;;;19.67;;
44810;SDS011;30526;52.184;4.476;2022-10-31T16:28:31;35.78;;;18.17;;
44810;SDS011;30526;52.184;4.476;2022-10-31T16:30:57;48.00;;;21.52;;
44810;SDS011;30526;52.184;4.476;2022-10-31T16:35:52;40.53;;;21.45;;
44810;SDS011;30526;52.184;4.476;2022-10-31T16:38:19;33.17;;;16.00;;
44810;SDS011;30526;52.184;4.476;2022-10-31T16:40:45;36.80;;;21.48;;
44810;SDS011;30526;52.184;4.476;2022-10-31T16:43:12;51.35;;;22.52;;
44810;SDS011;30526;52.184;4.476;2022-10-31T16:45:42;46.38;;;23.05;;
44810;SDS011;30526;52.184;4.476;2022-10-31T16:48:12;39.50;;;20.60;;
44810;SDS011;30526;52.184;4.476;2022-10-31T16:50:40;45.78;;;21.73;;
44810;SDS011;30526;52.184;4.476;2022-10-31T16:53:06;47.07;;;21.73;;
44810;SDS011;30526;52.184;4.476;2022-10-31T16:55:32;45.00;;;20.33;;
44810;SDS011;30526;52.184;4.476;2022-10-31T16:58:01;43.42;;;21.17;;
44810;SDS011;30526;52.184;4.476;2022-10-31T17:00:27;50.97;;;22.58;;
44810;SDS011;30526;52.184;4.476;2022-10-31T17:02:54;45.28;;;21.45;;
44810;SDS011;30526;52.184;4.476;2022-10-31T17:05:24;47.58;;;20.80;;
44810;SDS011;30526;52.184;4.476;2022-10-31T17:07:54;50.25;;;23.05;;